KCXO

Conroe-North Houston Regional Airport

Houston, Texas, USA
METAR KCXO 231053Z 36004KT 10SM FEW075 SCT120 13/11 A3016 RMK AO2 SLP212 T01280111
Observed Flight Rules
Oct-23 @ 10:53 UTC (57 minutes ago) Visual Flight Rules
Wind Visibility Clouds
360° at 4 knots 10 miles
  • Few at 7,500' AGL
  • Scattered at 12,000' AGL
Temperatures Readings
Current 13°C / 55°F
Dewpoint 11°C / 52°F
Humidity 88%
Altimeter 30.16" Hg
Pressure 1021.2 hPa
Elevation 75
METAR KCXO 231053Z 36004KT 10SM FEW075 SCT120 13/11 A3016 RMK AO2 SLP212 T01280111
Observed Flight Rules
Oct-23 @ 10:53 UTC
(57 minutes ago)
VFR
Wind Visibility
360° at 4 knots 10 miles
Clouds
  • Few at 7,500' AGL
  • Scattered at 12,000' AGL
Temperature Dewpoint
13°C / 55°F 11°C / 52°F
Humidity Altimeter Pressure
88% 30.16" Hg 1021.2 hPa